Ship Status Report: callsign BATEU06

sailwx.info

Track history (hours):
 
Tides and Currents Weather Stations Pressure Air Temp Water Temp Dewpoint Dewpoint Depression Visibility Wind Speed Wind Dir Waves Ship Positions

Callsign BATEU06 (name unknown)

Last reported at 2015-Jul-29 10:00 UTC. Time now 2015-Jul-29 11:33 UTC.
Position N 49°48' W 009°42'.

Wind from 300 at 15 knots

Barometer 1019.3 mb
Water temperature 16.7 ° C

Date/timePositionNaut miles runAvg speedWind from/ knotsBaromVisibWave heightAir tempDewpointWater temp
2015-Jul-29 10:00N 49°48' W 009°42'1919.4 300 / 151019.3 16.7
2015-Jul-29 09:00N 49°48' W 010°12'2323.2 310 / 151019.3 16.4
2015-Jul-29 08:00N 49°48' W 010°48'2323.2 300 / 141019.3 16.2
2015-Jul-29 07:00N 49°48' W 011°24'2020.3 300 / 151019.1 15.9
2015-Jul-29 06:00N 49°54' W 011°54'4321.3 300 / 141019.1 16.2
2015-Jul-29 04:00N 49°54' W 013°00'2323.2 310 / 141019.1 16.2
2015-Jul-29 03:00N 49°54' W 013°36'1919.3 310 / 141019.2 16.0
2015-Jul-29 02:00N 49°54' W 014°06'2323.2 310 / 141019.6 16.7
2015-Jul-29 01:00N 49°54' W 014°42'1919.3 310 / 131020.1 16.2
2015-Jul-29 00:00N 49°54' W 015°12'2323.2 300 / 141020.5 15.9
2015-Jul-28 23:00N 49°54' W 015°48'2323.2 320 / 131020.7 16.4
2015-Jul-28 22:00N 49°54' W 016°24'1919.3 310 / 121020.7 16.4
2015-Jul-28 21:00N 49°54' W 016°54'2424.0 320 / 131020.5 5.4 16.5
2015-Jul-28 20:00N 49°48' W 017°30'2323.2 310 / 141020.3 16.5
2015-Jul-28 19:00N 49°48' W 018°06'1919.4 310 / 121020.2 15.7
2015-Jul-28 18:00N 49°48' W 018°36'2323.2 320 / 111020.3 16.7
2015-Jul-28 17:00N 49°48' W 019°12'2323.2 350 / 101020.0 16.7
2015-Jul-28 16:00N 49°48' W 019°48'2020.3 350 / 101020.4 15.9
2015-Jul-28 15:00N 49°42' W 020°18'4321.3 010 / 111020.0 15.7
2015-Jul-28 13:00N 49°42' W 021°24'2424.1 010 / 121020.3 15.4
2015-Jul-28 12:00N 49°36' W 022°00'1919.4 020 / 131020.2 15.2
2015-Jul-28 11:00N 49°36' W 022°30'2323.3 020 / 131020.3 14.9
2015-Jul-28 10:00N 49°36' W 023°06'2424.1 010 / 121020.5 14.9
2015-Jul-28 09:00N 49°30' W 023°42'1919.5 030 / 151019.8 15.0
2015-Jul-28 08:00N 49°30' W 024°12'2424.2 030 / 161019.4 15.7
2015-Jul-28 07:00N 49°24' W 024°48'2019.5 030 / 151019.1 15.7
2015-Jul-28 06:00N 49°24' W 025°18'2424.2 040 / 171018.6 15.2
2015-Jul-28 05:00N 49°18' W 025°54'2019.6 040 / 201018.3 14.7
2015-Jul-28 04:00N 49°18' W 026°24'2424.3 040 / 191018.1 14.7
2015-Jul-28 03:00N 49°12' W 027°00'2120.5 050 / 201018.0 13.9
2015-Jul-28 02:00N 49°06' W 027°30'2019.6 040 / 201018.7 13.7
2015-Jul-28 01:00N 49°06' W 028°00'2424.3 050 / 221018.4 14.4
2015-Jul-28 00:00N 49°00' W 028°36'2120.6 050 / 241018.2 14.2
2015-Jul-27 23:00N 48°54' W 029°06'2019.7 050 / 271017.3 14.9
2015-Jul-27 22:00N 48°54' W 029°36'2120.6 060 / 281017.0 14.7
2015-Jul-27 21:00N 48°48' W 030°06'2120.7 040 / 281017.0 14.7
2015-Jul-27 20:00N 48°42' W 030°36'2120.7 060 / 271015.6 14.9
2015-Jul-27 19:00N 48°36' W 031°06'2019.8 070 / 281015.1 14.4
2015-Jul-27 18:00N 48°36' W 031°36'2120.7 070 / 261015.0 14.4
2015-Jul-27 17:00N 48°30' W 032°06'2120.8 070 / 251015.6 14.4
2015-Jul-27 16:00N 48°24' W 032°36'2120.8 060 / 261014.8 15.7
2015-Jul-27 15:00N 48°18' W 033°06'2524.7 060 / 261015.0 15.5
2015-Jul-27 14:00N 48°12' W 033°42'2120.9 060 / 281014.4 15.9
2015-Jul-27 13:00N 48°06' W 034°12'2020.0 060 / 261014.1 15.7
2015-Jul-27 12:00N 48°06' W 034°42'2120.9 060 / 251013.8 5.4 15.4
2015-Jul-27 11:00N 48°00' W 035°12'2121.0 060 / 231014.1 15.2
2015-Jul-27 10:00N 47°54' W 035°42'2121.0 060 / 231013.4 15.0
2015-Jul-27 09:00N 47°48' W 036°12'2121.0 060 / 291012.5 15.5
2015-Jul-27 08:00N 47°42' W 036°42'1717.2 050 / 291012.6 16.2
2015-Jul-27 07:00N 47°36' W 037°06'2121.1 060 / 291011.7 16.2
2015-Jul-27 06:00N 47°30' W 037°36'2121.2 060 / 281011.7 16.2
2015-Jul-27 05:00N 47°24' W 038°06'1717.3 060 / 211012.2 16.2
2015-Jul-27 04:00N 47°18' W 038°30'2423.7 060 / 211012.2 16.2
2015-Jul-27 03:00N 47°06' W 039°00'2121.3 060 / 231012.1 16.2
2015-Jul-27 02:00N 47°00' W 039°30'2121.3 050 / 221012.6 16.2
2015-Jul-27 01:00N 46°54' W 040°00'1717.5 050 / 241012.9 17.2
2015-Jul-27 00:00N 46°48' W 040°24'2121.4 060 / 191012.8 5.4 15.7
2015-Jul-26 23:00N 46°42' W 040°54'2121.4 040 / 151013.4 12.9
2015-Jul-26 22:00N 46°36' W 041°24'2423.9 040 / 151013.5 10.9
2015-Jul-26 21:00N 46°24' W 041°54'2221.6 050 / 151013.2 10.2
2015-Jul-26 20:00N 46°18' W 042°24'2221.6 060 / 201012.4 17.4
2015-Jul-26 19:00N 46°12' W 042°54'2827.7 060 / 241011.0 17.2
2015-Jul-26 18:00N 46°00' W 043°30'2221.7 050 / 241011.1 16.9
2015-Jul-26 17:00N 45°54' W 044°00'2221.7 040 / 231011.2 14.5
2015-Jul-26 16:00N 45°48' W 044°30'2120.9 040 / 221012.3 10.9
2015-Jul-26 15:00N 45°48' W 045°00'2221.8 040 / 201013.2 2.2 2.0 10.7
2015-Jul-26 14:00N 45°42' W 045°30'2121.0 040 / 221013.3 10.4
2015-Jul-26 13:00N 45°42' W 046°00'2121.0 040 / 231013.8 10.7
2015-Jul-26 12:00N 45°42' W 046°30'2121.0 040 / 221013.9 10.2
2015-Jul-26 11:00N 45°42' W 047°00'2221.8 050 / 241013.4 10.2
2015-Jul-26 10:00N 45°36' W 047°30'1716.8 040 / 211014.5 10.2
2015-Jul-26 09:00N 45°36' W 047°54'1312.6 040 / 191015.0 9.4
2015-Jul-26 08:00N 45°36' W 048°12'1716.8 050 / 201014.8 8.7
2015-Jul-26 07:00N 45°36' W 048°36'2121.0 050 / 221013.9 9.4
2015-Jul-26 06:00N 45°36' W 049°06'1716.8 040 / 151015.3 10.5
2015-Jul-26 05:00N 45°36' W 049°30'1817.8 050 / 151016.2 10.7
2015-Jul-26 04:00N 45°42' W 049°54'2221.8 050 / 171016.6 11.4
2015-Jul-26 03:00N 45°48' W 050°24'1716.7 070 / 191016.6 11.0
2015-Jul-26 02:00N 45°48' W 050°48'1817.8 070 / 171017.3 10.9
2015-Jul-26 01:00N 45°54' W 051°12'1716.7 080 / 191017.4 11.4
2015-Jul-26 00:00N 45°54' W 051°36'2221.7 070 / 201018.2 5.4 11.4
2015-Jul-25 23:00N 46°00' W 052°06'1817.7 060 / 201017.5 11.4
2015-Jul-25 22:00N 46°06' W 052°30'1716.6 050 / 171019.2 11.9
2015-Jul-25 21:00N 46°06' W 052°54'2221.6 050 / 171018.4 5.4 11.7
2015-Jul-25 20:00N 46°12' W 053°24'1716.6 080 / 201018.3 11.2
2015-Jul-25 19:00N 46°12' W 053°48'1817.6 090 / 181017.8 11.4
2015-Jul-25 18:00N 46°18' W 054°12'1716.6 090 / 141019.0 2.2 11.9
2015-Jul-25 17:00N 46°18' W 054°36'2221.6 090 / 121019.3 11.9
2015-Jul-25 16:00N 46°24' W 055°06'1817.6 090 / 141019.9 11.9
2015-Jul-25 15:00N 46°30' W 055°30'2120.7 090 / 171019.6 12.2
2015-Jul-25 14:00N 46°30' W 056°00'1817.6 100 / 141019.6 11.9
2015-Jul-25 13:00N 46°36' W 056°24'1817.5 080 / 181019.6 12.4
2015-Jul-25 12:00N 46°42' W 056°48'3919.4 090 / 131019.9 12.4
2015-Jul-25 10:00N 46°54' W 057°42'2020.3 100 / 181018.7 12.9
2015-Jul-25 09:00N 47°06' W 058°06'1717.4 100 / 191018.0 13.4
2015-Jul-25 08:00N 47°12' W 058°30'1717.4 110 / 171017.6 13.9
2015-Jul-25 07:00N 47°18' W 058°54'1717.3 110 / 181016.9 13.7
2015-Jul-25 06:00N 47°24' W 059°18'2121.2 120 / 201015.7 13.7
2015-Jul-25 05:00N 47°30' W 059°48'2020.1 130 / 151015.6 13.4
2015-Jul-25 04:00N 47°42' W 060°12'1717.2 120 / 131015.9 14.7
2015-Jul-25 03:00N 47°48' W 060°36'2020.1 090 / 201015.6 13.7
2015-Jul-25 02:00N 48°00' W 061°00'2020.0 060 / 141016.5 13.7
2015-Jul-25 01:00N 48°12' W 061°24'1717.1 060 / 131016.9 12.9
2015-Jul-25 00:00N 48°18' W 061°48'2019.9 030 / 111016.8 5.4 14.5
2015-Jul-24 23:00N 48°30' W 062°12'2019.9 010 / 121016.8 15.0
2015-Jul-24 22:00N 48°42' W 062°36'1716.9 080 / 171015.9 14.9
2015-Jul-24 21:00N 48°48' W 063°00'2019.8 100 / 61016.7 15.2
2015-Jul-24 20:00N 49°00' W 063°24'3718.7 310 / 51017.0 12.9
2015-Jul-24 18:00N 49°12' W 064°18'1716.8 300 / 41016.9 13.2
2015-Jul-24 17:00N 49°18' W 064°42'2020.4 080 / 11016.5 12.2
2015-Jul-24 16:00N 49°24' W 065°12'31716.7 100 / 81015.4 10.4
2015-Jul-23 21:00N 46°36' W 071°54'1413.8 270 / 111008.4 22.2
2015-Jul-23 20:00N 46°30' W 072°12'2010.2 350 / 61008.1 22.2
2015-Jul-23 18:00N 46°18' W 072°36'1413.8 290 / 41008.8 22.2
2015-Jul-23 17:00N 46°12' W 072°54'1717.3 240 / 41008.8 22.0
2015-Jul-23 16:00N 46°00' W 073°12'1312.7 220 / 101009.3 22.0
2015-Jul-23 15:00N 45°48' W 073°18'1514.6 260 / 81009.9 21.7
2015-Jul-23 14:00N 45°36' W 073°30'   260 / 71010.1 21.5
2015-Jul-20 23:00N 45°42' W 073°30'1010.3 230 / 101002.0 22.4
2015-Jul-20 22:00N 45°48' W 073°18'7 7.3 220 / 161001.4 22.0
2015-Jul-20 21:00N 45°54' W 073°12'1312.7 210 / 201001.6 22.5
2015-Jul-20 20:00N 46°06' W 073°06'1010.3 220 / 131001.7 22.4
2015-Jul-20 19:00N 46°12' W 072°54'8 8.3 210 / 201001.1 22.2
2015-Jul-20 18:00N 46°12' W 072°42'7 7.3 060 / 31002.3 22.2
2015-Jul-20 17:00N 46°18' W 072°36'1010.2 220 / 51002.6 22.0
2015-Jul-20 16:00N 46°24' W 072°24'1010.2 230 / 71003.0 22.0
2015-Jul-20 15:00N 46°30' W 072°12'2010.2 250 / 61003.2 22.2
2015-Jul-20 13:00N 46°42' W 071°48'2512.7 070 / 41003.2 21.9
2015-Jul-20 11:00N 46°48' W 071°12'2020.3 060 / 41003.0 21.9
2015-Jul-20 10:00N 47°00' W 070°48'1514.5 040 / 91003.3 22.2
2015-Jul-20 09:00N 47°12' W 070°36'2424.3 360 / 101003.2 19.2
2015-Jul-20 08:00N 47°30' W 070°12'1717.1 070 / 121003.2 12.0
2015-Jul-20 07:00N 47°42' W 069°54'2019.7 030 / 51004.5 9.5
2015-Jul-20 06:00N 48°00' W 069°42'1414.4 040 / 191004.7 8.9
2015-Jul-20 05:00N 48°12' W 069°30'1010.0 030 / 171006.0 7.9
2015-Jul-20 04:00N 48°18' W 069°18'1010.0 020 / 171007.6 8.7
2015-Jul-20 03:00N 48°24' W 069°06'1414.4 040 / 111008.1 6.2
2015-Jul-20 02:00N 48°36' W 068°54'10 9.9 090 / 191008.6 9.7
2015-Jul-20 01:00N 48°42' W 068°42'1313.3 080 / 201010.2 7.7
2015-Jul-20 00:00N 48°48' W 068°24'10 9.9 060 / 111010.4 10.0
2015-Jul-19 23:00N 48°54' W 068°12'2311.5 050 / 121010.6 9.7
2015-Jul-19 21:00N 49°06' W 067°42'1313.2 040 / 171011.6 12.9
2015-Jul-19 20:00N 49°12' W 067°24'4120.5 040 / 171011.9 13.4
2015-Jul-19 18:00N 49°24' W 066°24'1615.6 090 / 231012.4 14.4
2015-Jul-19 17:00N 49°24' W 066°00'2019.5 090 / 221013.6 11.9
2015-Jul-19 16:00N 49°24' W 065°30'2019.5 110 / 231014.6 13.5
2015-Jul-19 15:00N 49°24' W 065°00'2019.5 110 / 171015.6 13.7
2015-Jul-19 14:00N 49°24' W 064°30'3718.6 100 / 171016.1 13.4
2015-Jul-19 12:00N 49°12' W 063°36'2019.8 100 / 181016.4 12.2
2015-Jul-19 11:00N 49°00' W 063°12'1716.9 090 / 181016.7 12.0
2015-Jul-19 10:00N 48°54' W 062°48'   080 / 171016.9 11.7
Track history (hours):
 
Tides and Currents Weather Stations Pressure Air Temp Water Temp Dewpoint Dewpoint Depression Visibility Wind Speed Wind Dir Waves Ship Positions

Callsign BATEU06 (name unknown)

Last reported at 2015-Jul-29 10:00 UTC. Time now 2015-Jul-29 11:34 UTC.
Position N 49°48' W 009°42'.

Wind from 300 at 15 knots

Barometer 1019.3 mb
Water temperature 16.7 ° C

Date/timePositionNaut miles runAvg speedWind from/ knotsBaromVisibWave heightAir tempDewpointWater temp
2015-Jul-29 10:00N 49°48' W 009°42'1919.4 300 / 151019.3 16.7
2015-Jul-29 09:00N 49°48' W 010°12'2323.2 310 / 151019.3 16.4
2015-Jul-29 08:00N 49°48' W 010°48'2323.2 300 / 141019.3 16.2
2015-Jul-29 07:00N 49°48' W 011°24'2020.3 300 / 151019.1 15.9
2015-Jul-29 06:00N 49°54' W 011°54'4321.3 300 / 141019.1 16.2
2015-Jul-29 04:00N 49°54' W 013°00'2323.2 310 / 141019.1 16.2
2015-Jul-29 03:00N 49°54' W 013°36'1919.3 310 / 141019.2 16.0
2015-Jul-29 02:00N 49°54' W 014°06'2323.2 310 / 141019.6 16.7
2015-Jul-29 01:00N 49°54' W 014°42'1919.3 310 / 131020.1 16.2
2015-Jul-29 00:00N 49°54' W 015°12'2323.2 300 / 141020.5 15.9
2015-Jul-28 23:00N 49°54' W 015°48'2323.2 320 / 131020.7 16.4
2015-Jul-28 22:00N 49°54' W 016°24'1919.3 310 / 121020.7 16.4
2015-Jul-28 21:00N 49°54' W 016°54'2424.0 320 / 131020.5 5.4 16.5
2015-Jul-28 20:00N 49°48' W 017°30'2323.2 310 / 141020.3 16.5
2015-Jul-28 19:00N 49°48' W 018°06'1919.4 310 / 121020.2 15.7
2015-Jul-28 18:00N 49°48' W 018°36'2323.2 320 / 111020.3 16.7
2015-Jul-28 17:00N 49°48' W 019°12'2323.2 350 / 101020.0 16.7
2015-Jul-28 16:00N 49°48' W 019°48'2020.3 350 / 101020.4 15.9
2015-Jul-28 15:00N 49°42' W 020°18'4321.3 010 / 111020.0 15.7
2015-Jul-28 13:00N 49°42' W 021°24'2424.1 010 / 121020.3 15.4
2015-Jul-28 12:00N 49°36' W 022°00'1919.4 020 / 131020.2 15.2
2015-Jul-28 11:00N 49°36' W 022°30'2323.3 020 / 131020.3 14.9
2015-Jul-28 10:00N 49°36' W 023°06'2424.1 010 / 121020.5 14.9
2015-Jul-28 09:00N 49°30' W 023°42'1919.5 030 / 151019.8 15.0
2015-Jul-28 08:00N 49°30' W 024°12'2424.2 030 / 161019.4 15.7
2015-Jul-28 07:00N 49°24' W 024°48'2019.5 030 / 151019.1 15.7
2015-Jul-28 06:00N 49°24' W 025°18'2424.2 040 / 171018.6 15.2
2015-Jul-28 05:00N 49°18' W 025°54'2019.6 040 / 201018.3 14.7
2015-Jul-28 04:00N 49°18' W 026°24'2424.3 040 / 191018.1 14.7
2015-Jul-28 03:00N 49°12' W 027°00'2120.5 050 / 201018.0 13.9
2015-Jul-28 02:00N 49°06' W 027°30'2019.6 040 / 201018.7 13.7
2015-Jul-28 01:00N 49°06' W 028°00'2424.3 050 / 221018.4 14.4
2015-Jul-28 00:00N 49°00' W 028°36'2120.6 050 / 241018.2 14.2
2015-Jul-27 23:00N 48°54' W 029°06'2019.7 050 / 271017.3 14.9
2015-Jul-27 22:00N 48°54' W 029°36'2120.6 060 / 281017.0 14.7
2015-Jul-27 21:00N 48°48' W 030°06'2120.7 040 / 281017.0 14.7
2015-Jul-27 20:00N 48°42' W 030°36'2120.7 060 / 271015.6 14.9
2015-Jul-27 19:00N 48°36' W 031°06'2019.8 070 / 281015.1 14.4
2015-Jul-27 18:00N 48°36' W 031°36'2120.7 070 / 261015.0 14.4
2015-Jul-27 17:00N 48°30' W 032°06'2120.8 070 / 251015.6 14.4
2015-Jul-27 16:00N 48°24' W 032°36'2120.8 060 / 261014.8 15.7
2015-Jul-27 15:00N 48°18' W 033°06'2524.7 060 / 261015.0 15.5
2015-Jul-27 14:00N 48°12' W 033°42'2120.9 060 / 281014.4 15.9
2015-Jul-27 13:00N 48°06' W 034°12'2020.0 060 / 261014.1 15.7
2015-Jul-27 12:00N 48°06' W 034°42'2120.9 060 / 251013.8 5.4 15.4
2015-Jul-27 11:00N 48°00' W 035°12'2121.0 060 / 231014.1 15.2
2015-Jul-27 10:00N 47°54' W 035°42'2121.0 060 / 231013.4 15.0
2015-Jul-27 09:00N 47°48' W 036°12'2121.0 060 / 291012.5 15.5
2015-Jul-27 08:00N 47°42' W 036°42'1717.2 050 / 291012.6 16.2
2015-Jul-27 07:00N 47°36' W 037°06'2121.1 060 / 291011.7 16.2
2015-Jul-27 06:00N 47°30' W 037°36'2121.2 060 / 281011.7 16.2
2015-Jul-27 05:00N 47°24' W 038°06'1717.3 060 / 211012.2 16.2
2015-Jul-27 04:00N 47°18' W 038°30'2423.7 060 / 211012.2 16.2
2015-Jul-27 03:00N 47°06' W 039°00'2121.3 060 / 231012.1 16.2
2015-Jul-27 02:00N 47°00' W 039°30'2121.3 050 / 221012.6 16.2
2015-Jul-27 01:00N 46°54' W 040°00'1717.5 050 / 241012.9 17.2
2015-Jul-27 00:00N 46°48' W 040°24'2121.4 060 / 191012.8 5.4 15.7
2015-Jul-26 23:00N 46°42' W 040°54'2121.4 040 / 151013.4 12.9
2015-Jul-26 22:00N 46°36' W 041°24'2423.9 040 / 151013.5 10.9
2015-Jul-26 21:00N 46°24' W 041°54'2221.6 050 / 151013.2 10.2
2015-Jul-26 20:00N 46°18' W 042°24'2221.6 060 / 201012.4 17.4
2015-Jul-26 19:00N 46°12' W 042°54'2827.7 060 / 241011.0 17.2
2015-Jul-26 18:00N 46°00' W 043°30'2221.7 050 / 241011.1 16.9
2015-Jul-26 17:00N 45°54' W 044°00'2221.7 040 / 231011.2 14.5
2015-Jul-26 16:00N 45°48' W 044°30'2120.9 040 / 221012.3 10.9
2015-Jul-26 15:00N 45°48' W 045°00'2221.8 040 / 201013.2 2.2 2.0 10.7
2015-Jul-26 14:00N 45°42' W 045°30'2121.0 040 / 221013.3 10.4
2015-Jul-26 13:00N 45°42' W 046°00'2121.0 040 / 231013.8 10.7
2015-Jul-26 12:00N 45°42' W 046°30'2121.0 040 / 221013.9 10.2
2015-Jul-26 11:00N 45°42' W 047°00'2221.8 050 / 241013.4 10.2
2015-Jul-26 10:00N 45°36' W 047°30'1716.8 040 / 211014.5 10.2
2015-Jul-26 09:00N 45°36' W 047°54'1312.6 040 / 191015.0 9.4
2015-Jul-26 08:00N 45°36' W 048°12'1716.8 050 / 201014.8 8.7
2015-Jul-26 07:00N 45°36' W 048°36'2121.0 050 / 221013.9 9.4
2015-Jul-26 06:00N 45°36' W 049°06'1716.8 040 / 151015.3 10.5
2015-Jul-26 05:00N 45°36' W 049°30'1817.8 050 / 151016.2 10.7
2015-Jul-26 04:00N 45°42' W 049°54'2221.8 050 / 171016.6 11.4
2015-Jul-26 03:00N 45°48' W 050°24'1716.7 070 / 191016.6 11.0
2015-Jul-26 02:00N 45°48' W 050°48'1817.8 070 / 171017.3 10.9
2015-Jul-26 01:00N 45°54' W 051°12'1716.7 080 / 191017.4 11.4
2015-Jul-26 00:00N 45°54' W 051°36'2221.7 070 / 201018.2 5.4 11.4
2015-Jul-25 23:00N 46°00' W 052°06'1817.7 060 / 201017.5 11.4
2015-Jul-25 22:00N 46°06' W 052°30'1716.6 050 / 171019.2 11.9
2015-Jul-25 21:00N 46°06' W 052°54'2221.6 050 / 171018.4 5.4 11.7
2015-Jul-25 20:00N 46°12' W 053°24'1716.6 080 / 201018.3 11.2
2015-Jul-25 19:00N 46°12' W 053°48'1817.6 090 / 181017.8 11.4
2015-Jul-25 18:00N 46°18' W 054°12'1716.6 090 / 141019.0 2.2 11.9
2015-Jul-25 17:00N 46°18' W 054°36'2221.6 090 / 121019.3 11.9
2015-Jul-25 16:00N 46°24' W 055°06'1817.6 090 / 141019.9 11.9
2015-Jul-25 15:00N 46°30' W 055°30'2120.7 090 / 171019.6 12.2
2015-Jul-25 14:00N 46°30' W 056°00'1817.6 100 / 141019.6 11.9
2015-Jul-25 13:00N 46°36' W 056°24'1817.5 080 / 181019.6 12.4
2015-Jul-25 12:00N 46°42' W 056°48'3919.4 090 / 131019.9 12.4
2015-Jul-25 10:00N 46°54' W 057°42'2020.3 100 / 181018.7 12.9
2015-Jul-25 09:00N 47°06' W 058°06'1717.4 100 / 191018.0 13.4
2015-Jul-25 08:00N 47°12' W 058°30'1717.4 110 / 171017.6 13.9
2015-Jul-25 07:00N 47°18' W 058°54'1717.3 110 / 181016.9 13.7
2015-Jul-25 06:00N 47°24' W 059°18'2121.2 120 / 201015.7 13.7
2015-Jul-25 05:00N 47°30' W 059°48'2020.1 130 / 151015.6 13.4
2015-Jul-25 04:00N 47°42' W 060°12'1717.2 120 / 131015.9 14.7
2015-Jul-25 03:00N 47°48' W 060°36'2020.1 090 / 201015.6 13.7
2015-Jul-25 02:00N 48°00' W 061°00'2020.0 060 / 141016.5 13.7
2015-Jul-25 01:00N 48°12' W 061°24'1717.1 060 / 131016.9 12.9
2015-Jul-25 00:00N 48°18' W 061°48'2019.9 030 / 111016.8 5.4 14.5
2015-Jul-24 23:00N 48°30' W 062°12'2019.9 010 / 121016.8 15.0
2015-Jul-24 22:00N 48°42' W 062°36'1716.9 080 / 171015.9 14.9
2015-Jul-24 21:00N 48°48' W 063°00'2019.8 100 / 61016.7 15.2
2015-Jul-24 20:00N 49°00' W 063°24'3718.7 310 / 51017.0 12.9
2015-Jul-24 18:00N 49°12' W 064°18'1716.8 300 / 41016.9 13.2
2015-Jul-24 17:00N 49°18' W 064°42'2020.4 080 / 11016.5 12.2
2015-Jul-24 16:00N 49°24' W 065°12'31716.7 100 / 81015.4 10.4
2015-Jul-23 21:00N 46°36' W 071°54'1413.8 270 / 111008.4 22.2
2015-Jul-23 20:00N 46°30' W 072°12'2010.2 350 / 61008.1 22.2
2015-Jul-23 18:00N 46°18' W 072°36'1413.8 290 / 41008.8 22.2
2015-Jul-23 17:00N 46°12' W 072°54'1717.3 240 / 41008.8 22.0
2015-Jul-23 16:00N 46°00' W 073°12'1312.7 220 / 101009.3 22.0
2015-Jul-23 15:00N 45°48' W 073°18'1514.6 260 / 81009.9 21.7
2015-Jul-23 14:00N 45°36' W 073°30'   260 / 71010.1 21.5
2015-Jul-20 23:00N 45°42' W 073°30'1010.3 230 / 101002.0 22.4
2015-Jul-20 22:00N 45°48' W 073°18'7 7.3 220 / 161001.4 22.0
2015-Jul-20 21:00N 45°54' W 073°12'1312.7 210 / 201001.6 22.5
2015-Jul-20 20:00N 46°06' W 073°06'1010.3 220 / 131001.7 22.4
2015-Jul-20 19:00N 46°12' W 072°54'8 8.3 210 / 201001.1 22.2
2015-Jul-20 18:00N 46°12' W 072°42'7 7.3 060 / 31002.3 22.2
2015-Jul-20 17:00N 46°18' W 072°36'1010.2 220 / 51002.6 22.0
2015-Jul-20 16:00N 46°24' W 072°24'1010.2 230 / 71003.0 22.0
2015-Jul-20 15:00N 46°30' W 072°12'2010.2 250 / 61003.2 22.2
2015-Jul-20 13:00N 46°42' W 071°48'2512.7 070 / 41003.2 21.9
2015-Jul-20 11:00N 46°48' W 071°12'2020.3 060 / 41003.0 21.9
2015-Jul-20 10:00N 47°00' W 070°48'1514.5 040 / 91003.3 22.2
2015-Jul-20 09:00N 47°12' W 070°36'2424.3 360 / 101003.2 19.2
2015-Jul-20 08:00N 47°30' W 070°12'1717.1 070 / 121003.2 12.0
2015-Jul-20 07:00N 47°42' W 069°54'2019.7 030 / 51004.5 9.5
2015-Jul-20 06:00N 48°00' W 069°42'1414.4 040 / 191004.7 8.9
2015-Jul-20 05:00N 48°12' W 069°30'1010.0 030 / 171006.0 7.9
2015-Jul-20 04:00N 48°18' W 069°18'1010.0 020 / 171007.6 8.7
2015-Jul-20 03:00N 48°24' W 069°06'1414.4 040 / 111008.1 6.2
2015-Jul-20 02:00N 48°36' W 068°54'10 9.9 090 / 191008.6 9.7
2015-Jul-20 01:00N 48°42' W 068°42'1313.3 080 / 201010.2 7.7
2015-Jul-20 00:00N 48°48' W 068°24'10 9.9 060 / 111010.4 10.0
2015-Jul-19 23:00N 48°54' W 068°12'2311.5 050 / 121010.6 9.7
2015-Jul-19 21:00N 49°06' W 067°42'1313.2 040 / 171011.6 12.9
2015-Jul-19 20:00N 49°12' W 067°24'4120.5 040 / 171011.9 13.4
2015-Jul-19 18:00N 49°24' W 066°24'1615.6 090 / 231012.4 14.4
2015-Jul-19 17:00N 49°24' W 066°00'2019.5 090 / 221013.6 11.9
2015-Jul-19 16:00N 49°24' W 065°30'2019.5 110 / 231014.6 13.5
2015-Jul-19 15:00N 49°24' W 065°00'2019.5 110 / 171015.6 13.7
2015-Jul-19 14:00N 49°24' W 064°30'3718.6 100 / 171016.1 13.4
2015-Jul-19 12:00N 49°12' W 063°36'2019.8 100 / 181016.4 12.2
2015-Jul-19 11:00N 49°00' W 063°12'1716.9 090 / 181016.7 12.0
2015-Jul-19 10:00N 48°54' W 062°48'   080 / 171016.9 11.7

Dump ship's entire track history